Mint Hill, North Carolina
Current Conditions -  °F | °C
As of 1:53 PM on Saturday 20 Dec 2014 (Local Time) from KEQY Reporting Station
Overcast Overcast  
Wind Chill: 38°   Ceiling: 2700
Heat Index: 42°   Visibility: 10mi
Dew Point: 35°   Wind: 6mph
Humidity: 76%   Direction: 50°NE
Pressure: 30.21"   Gusts: NA
Location:  35.17°N, 80.66°W
Report Text: KEQY 201853Z AUTO 05005KT 10SM OVC027 06/02 A3021 RMK AO2 SLP245 T00560017
Loading
Personal Weather Stations






























Interactive Weather Map New forecast layout! Learn more

10-Day Weather Forecast

Advertisements
Track Severe Weather on mobile